sensor_id;sensor_type;location;lat;lon;timestamp;temperature;humidity
54954;DHT22;40855;51.072;5.402;2023-03-23T00:01:10;13.10;99.90
54954;DHT22;40855;51.072;5.402;2023-03-23T00:03:36;13.10;99.90
54954;DHT22;40855;51.072;5.402;2023-03-23T00:06:02;13.10;99.90
54954;DHT22;40855;51.072;5.402;2023-03-23T00:08:31;13.10;99.90
54954;DHT22;40855;51.072;5.402;2023-03-23T00:10:57;13.10;99.90
54954;DHT22;40855;51.072;5.402;2023-03-23T00:13:24;13.10;99.90
54954;DHT22;40855;51.072;5.402;2023-03-23T00:15:50;13.10;99.90
54954;DHT22;40855;51.072;5.402;2023-03-23T00:18:17;13.10;99.90
54954;DHT22;40855;51.072;5.402;2023-03-23T00:20:54;13.10;99.90
54954;DHT22;40855;51.072;5.402;2023-03-23T00:23:25;13.10;99.90
54954;DHT22;40855;51.072;5.402;2023-03-23T00:25:55;13.10;99.90
54954;DHT22;40855;51.072;5.402;2023-03-23T00:28:25;13.10;99.90
54954;DHT22;40855;51.072;5.402;2023-03-23T00:31:05;13.10;99.90
54954;DHT22;40855;51.072;5.402;2023-03-23T00:33:34;13.10;99.90
54954;DHT22;40855;51.072;5.402;2023-03-23T00:36:08;13.10;99.90
54954;DHT22;40855;51.072;5.402;2023-03-23T00:38:34;13.10;99.90
54954;DHT22;40855;51.072;5.402;2023-03-23T00:41:00;13.10;99.90
54954;DHT22;40855;51.072;5.402;2023-03-23T00:43:28;13.10;99.90
54954;DHT22;40855;51.072;5.402;2023-03-23T00:45:54;13.20;99.90
54954;DHT22;40855;51.072;5.402;2023-03-23T00:48:22;13.20;99.90
54954;DHT22;40855;51.072;5.402;2023-03-23T00:50:49;13.10;99.90
54954;DHT22;40855;51.072;5.402;2023-03-23T00:53:15;13.20;99.90
54954;DHT22;40855;51.072;5.402;2023-03-23T00:55:42;13.20;99.90
54954;DHT22;40855;51.072;5.402;2023-03-23T00:58:08;13.20;99.90
54954;DHT22;40855;51.072;5.402;2023-03-23T01:00:35;13.20;99.90
54954;DHT22;40855;51.072;5.402;2023-03-23T01:03:01;13.20;99.90
54954;DHT22;40855;51.072;5.402;2023-03-23T01:05:26;13.20;99.90
54954;DHT22;40855;51.072;5.402;2023-03-23T01:07:58;13.20;99.90
54954;DHT22;40855;51.072;5.402;2023-03-23T01:10:24;13.20;99.90
54954;DHT22;40855;51.072;5.402;2023-03-23T01:12:52;13.20;99.90
54954;DHT22;40855;51.072;5.402;2023-03-23T01:15:18;13.20;99.90
54954;DHT22;40855;51.072;5.402;2023-03-23T01:17:45;13.20;99.90
54954;DHT22;40855;51.072;5.402;2023-03-23T01:20:14;13.30;99.90
54954;DHT22;40855;51.072;5.402;2023-03-23T01:22:41;13.20;99.90
54954;DHT22;40855;51.072;5.402;2023-03-23T01:25:09;13.30;99.90
54954;DHT22;40855;51.072;5.402;2023-03-23T01:27:35;13.30;99.90
54954;DHT22;40855;51.072;5.402;2023-03-23T01:30:03;13.20;99.90
54954;DHT22;40855;51.072;5.402;2023-03-23T01:32:28;13.30;99.90
54954;DHT22;40855;51.072;5.402;2023-03-23T01:34:54;13.20;99.90
54954;DHT22;40855;51.072;5.402;2023-03-23T01:37:20;13.20;99.90
54954;DHT22;40855;51.072;5.402;2023-03-23T01:39:55;13.20;99.90
54954;DHT22;40855;51.072;5.402;2023-03-23T01:42:25;13.20;99.90
54954;DHT22;40855;51.072;5.402;2023-03-23T01:47:19;13.20;99.90
54954;DHT22;40855;51.072;5.402;2023-03-23T01:49:49;13.20;99.90
54954;DHT22;40855;51.072;5.402;2023-03-23T01:52:23;13.20;99.90
54954;DHT22;40855;51.072;5.402;2023-03-23T01:54:53;13.20;99.90
54954;DHT22;40855;51.072;5.402;2023-03-23T01:57:22;13.20;99.90
54954;DHT22;40855;51.072;5.402;2023-03-23T01:59:50;13.20;99.90
54954;DHT22;40855;51.072;5.402;2023-03-23T02:02:18;13.20;99.90
54954;DHT22;40855;51.072;5.402;2023-03-23T02:04:46;13.20;99.90
54954;DHT22;40855;51.072;5.402;2023-03-23T02:07:13;13.20;99.90
54954;DHT22;40855;51.072;5.402;2023-03-23T02:09:40;13.20;99.90
54954;DHT22;40855;51.072;5.402;2023-03-23T02:12:06;13.20;99.90
54954;DHT22;40855;51.072;5.402;2023-03-23T02:14:32;13.20;99.90
54954;DHT22;40855;51.072;5.402;2023-03-23T02:17:14;13.20;99.90
54954;DHT22;40855;51.072;5.402;2023-03-23T02:23:18;13.20;99.90
54954;DHT22;40855;51.072;5.402;2023-03-23T02:28:29;13.20;99.90
54954;DHT22;40855;51.072;5.402;2023-03-23T02:33:49;13.10;99.90
54954;DHT22;40855;51.072;5.402;2023-03-23T02:42:20;13.10;99.90
54954;DHT22;40855;51.072;5.402;2023-03-23T02:44:50;13.10;99.90
54954;DHT22;40855;51.072;5.402;2023-03-23T02:47:21;13.10;99.90
54954;DHT22;40855;51.072;5.402;2023-03-23T02:49:51;13.10;99.90
54954;DHT22;40855;51.072;5.402;2023-03-23T02:52:22;13.10;99.90
54954;DHT22;40855;51.072;5.402;2023-03-23T02:54:50;13.10;99.90
54954;DHT22;40855;51.072;5.402;2023-03-23T02:57:17;13.10;99.90
54954;DHT22;40855;51.072;5.402;2023-03-23T02:59:44;13.10;99.90
54954;DHT22;40855;51.072;5.402;2023-03-23T03:02:18;13.10;99.90
54954;DHT22;40855;51.072;5.402;2023-03-23T03:04:53;13.20;99.90
54954;DHT22;40855;51.072;5.402;2023-03-23T03:07:35;13.10;99.90
54954;DHT22;40855;51.072;5.402;2023-03-23T03:10:14;13.20;99.90
54954;DHT22;40855;51.072;5.402;2023-03-23T03:12:56;13.20;99.90
54954;DHT22;40855;51.072;5.402;2023-03-23T03:15:46;13.20;99.90
54954;DHT22;40855;51.072;5.402;2023-03-23T03:18:18;13.20;99.90
54954;DHT22;40855;51.072;5.402;2023-03-23T03:20:58;13.20;99.90
54954;DHT22;40855;51.072;5.402;2023-03-23T03:23:25;13.20;99.90
54954;DHT22;40855;51.072;5.402;2023-03-23T03:25:53;13.20;99.90
54954;DHT22;40855;51.072;5.402;2023-03-23T03:28:24;13.20;99.90
54954;DHT22;40855;51.072;5.402;2023-03-23T03:30:56;13.30;99.90
54954;DHT22;40855;51.072;5.402;2023-03-23T03:33:27;13.30;99.90
54954;DHT22;40855;51.072;5.402;2023-03-23T03:35:57;13.20;99.90
54954;DHT22;40855;51.072;5.402;2023-03-23T03:38:25;13.30;99.90
54954;DHT22;40855;51.072;5.402;2023-03-23T03:40:51;13.20;99.90
54954;DHT22;40855;51.072;5.402;2023-03-23T03:43:16;13.30;99.90
54954;DHT22;40855;51.072;5.402;2023-03-23T03:45:42;13.30;99.90
54954;DHT22;40855;51.072;5.402;2023-03-23T03:48:08;13.30;99.90
54954;DHT22;40855;51.072;5.402;2023-03-23T03:50:34;13.30;99.90
54954;DHT22;40855;51.072;5.402;2023-03-23T03:52:59;13.30;99.90
54954;DHT22;40855;51.072;5.402;2023-03-23T03:55:25;13.30;99.90
54954;DHT22;40855;51.072;5.402;2023-03-23T03:57:55;13.30;99.90
54954;DHT22;40855;51.072;5.402;2023-03-23T04:00:22;13.30;99.90
54954;DHT22;40855;51.072;5.402;2023-03-23T04:02:49;13.20;99.90
54954;DHT22;40855;51.072;5.402;2023-03-23T04:05:21;13.20;99.90
54954;DHT22;40855;51.072;5.402;2023-03-23T04:07:47;13.20;99.90
54954;DHT22;40855;51.072;5.402;2023-03-23T04:10:17;13.20;99.90
54954;DHT22;40855;51.072;5.402;2023-03-23T04:12:45;13.20;99.90
54954;DHT22;40855;51.072;5.402;2023-03-23T04:15:11;13.20;99.90
54954;DHT22;40855;51.072;5.402;2023-03-23T04:17:37;13.20;99.90
54954;DHT22;40855;51.072;5.402;2023-03-23T04:20:04;13.20;99.90
54954;DHT22;40855;51.072;5.402;2023-03-23T04:22:39;13.20;99.90
54954;DHT22;40855;51.072;5.402;2023-03-23T04:25:05;13.20;99.90
54954;DHT22;40855;51.072;5.402;2023-03-23T04:27:31;13.20;99.90
54954;DHT22;40855;51.072;5.402;2023-03-23T04:29:58;13.20;99.90
54954;DHT22;40855;51.072;5.402;2023-03-23T04:32:26;13.20;99.90
54954;DHT22;40855;51.072;5.402;2023-03-23T04:34:57;13.20;99.90
54954;DHT22;40855;51.072;5.402;2023-03-23T04:37:25;13.20;99.90
54954;DHT22;40855;51.072;5.402;2023-03-23T04:39:56;13.20;99.90
54954;DHT22;40855;51.072;5.402;2023-03-23T04:42:32;13.20;99.90
54954;DHT22;40855;51.072;5.402;2023-03-23T04:44:58;13.20;99.90
54954;DHT22;40855;51.072;5.402;2023-03-23T04:47:25;13.20;99.90
54954;DHT22;40855;51.072;5.402;2023-03-23T04:49:58;13.20;99.90
54954;DHT22;40855;51.072;5.402;2023-03-23T04:52:27;13.20;99.90
54954;DHT22;40855;51.072;5.402;2023-03-23T04:54:56;13.20;99.90
54954;DHT22;40855;51.072;5.402;2023-03-23T04:57:22;13.20;99.90
54954;DHT22;40855;51.072;5.402;2023-03-23T04:59:48;13.20;99.90
54954;DHT22;40855;51.072;5.402;2023-03-23T05:02:14;13.20;99.90
54954;DHT22;40855;51.072;5.402;2023-03-23T05:04:42;13.20;99.90
54954;DHT22;40855;51.072;5.402;2023-03-23T05:07:08;13.20;99.90
54954;DHT22;40855;51.072;5.402;2023-03-23T05:09:35;13.20;99.90
54954;DHT22;40855;51.072;5.402;2023-03-23T05:12:09;13.20;99.90
54954;DHT22;40855;51.072;5.402;2023-03-23T05:14:35;13.20;99.90
54954;DHT22;40855;51.072;5.402;2023-03-23T05:17:06;13.20;99.90
54954;DHT22;40855;51.072;5.402;2023-03-23T05:19:32;13.20;99.90
54954;DHT22;40855;51.072;5.402;2023-03-23T05:21:59;13.10;99.90
54954;DHT22;40855;51.072;5.402;2023-03-23T05:24:29;13.10;99.90
54954;DHT22;40855;51.072;5.402;2023-03-23T05:26:57;13.10;99.90
54954;DHT22;40855;51.072;5.402;2023-03-23T05:29:22;13.10;99.90
54954;DHT22;40855;51.072;5.402;2023-03-23T05:31:49;13.10;99.90
54954;DHT22;40855;51.072;5.402;2023-03-23T05:34:15;13.10;99.90
54954;DHT22;40855;51.072;5.402;2023-03-23T05:36:41;13.10;99.90
54954;DHT22;40855;51.072;5.402;2023-03-23T05:39:10;13.00;99.90
54954;DHT22;40855;51.072;5.402;2023-03-23T05:41:36;13.10;99.90
54954;DHT22;40855;51.072;5.402;2023-03-23T05:44:01;13.10;99.90
54954;DHT22;40855;51.072;5.402;2023-03-23T05:46:27;13.10;99.90
54954;DHT22;40855;51.072;5.402;2023-03-23T05:48:53;13.00;99.90
54954;DHT22;40855;51.072;5.402;2023-03-23T05:51:19;13.10;99.90
54954;DHT22;40855;51.072;5.402;2023-03-23T05:53:45;13.00;99.90
54954;DHT22;40855;51.072;5.402;2023-03-23T05:56:11;13.10;99.90
54954;DHT22;40855;51.072;5.402;2023-03-23T05:58:37;13.00;99.90
54954;DHT22;40855;51.072;5.402;2023-03-23T06:01:06;13.00;99.90
54954;DHT22;40855;51.072;5.402;2023-03-23T06:03:32;13.00;99.90
54954;DHT22;40855;51.072;5.402;2023-03-23T06:05:58;13.00;99.90
54954;DHT22;40855;51.072;5.402;2023-03-23T06:08:24;13.00;99.90
54954;DHT22;40855;51.072;5.402;2023-03-23T06:10:50;13.00;99.90
54954;DHT22;40855;51.072;5.402;2023-03-23T06:13:16;13.00;99.90
54954;DHT22;40855;51.072;5.402;2023-03-23T06:15:41;13.00;99.90
54954;DHT22;40855;51.072;5.402;2023-03-23T06:18:07;13.00;99.90
54954;DHT22;40855;51.072;5.402;2023-03-23T06:20:33;13.00;99.90
54954;DHT22;40855;51.072;5.402;2023-03-23T06:23:00;13.00;99.90
54954;DHT22;40855;51.072;5.402;2023-03-23T06:25:27;13.00;99.90
54954;DHT22;40855;51.072;5.402;2023-03-23T06:27:52;13.00;99.90
54954;DHT22;40855;51.072;5.402;2023-03-23T06:30:18;13.10;99.90
54954;DHT22;40855;51.072;5.402;2023-03-23T06:32:44;13.10;99.90
54954;DHT22;40855;51.072;5.402;2023-03-23T06:35:13;13.10;99.90
54954;DHT22;40855;51.072;5.402;2023-03-23T06:37:39;13.10;99.90
54954;DHT22;40855;51.072;5.402;2023-03-23T06:40:05;13.00;99.90
54954;DHT22;40855;51.072;5.402;2023-03-23T06:42:35;13.10;99.90
54954;DHT22;40855;51.072;5.402;2023-03-23T06:45:03;13.10;99.90
54954;DHT22;40855;51.072;5.402;2023-03-23T06:47:30;13.10;99.90
54954;DHT22;40855;51.072;5.402;2023-03-23T06:49:56;13.10;99.90
54954;DHT22;40855;51.072;5.402;2023-03-23T06:52:24;13.10;99.90
54954;DHT22;40855;51.072;5.402;2023-03-23T06:54:50;13.20;99.90
54954;DHT22;40855;51.072;5.402;2023-03-23T06:57:16;13.20;99.90
54954;DHT22;40855;51.072;5.402;2023-03-23T06:59:42;13.20;99.90
54954;DHT22;40855;51.072;5.402;2023-03-23T07:02:10;13.20;99.90
54954;DHT22;40855;51.072;5.402;2023-03-23T07:04:37;13.20;99.90
54954;DHT22;40855;51.072;5.402;2023-03-23T07:07:05;13.20;99.90
54954;DHT22;40855;51.072;5.402;2023-03-23T07:09:31;13.30;99.90
54954;DHT22;40855;51.072;5.402;2023-03-23T07:11:57;13.30;99.90
54954;DHT22;40855;51.072;5.402;2023-03-23T07:14:23;13.30;99.90
54954;DHT22;40855;51.072;5.402;2023-03-23T07:16:49;13.30;99.90
54954;DHT22;40855;51.072;5.402;2023-03-23T07:19:15;13.30;99.90
54954;DHT22;40855;51.072;5.402;2023-03-23T07:21:41;13.30;99.90
54954;DHT22;40855;51.072;5.402;2023-03-23T07:24:11;13.40;99.90
54954;DHT22;40855;51.072;5.402;2023-03-23T07:26:40;13.40;99.90
54954;DHT22;40855;51.072;5.402;2023-03-23T07:29:07;13.40;99.90
54954;DHT22;40855;51.072;5.402;2023-03-23T07:31:33;13.40;99.90
54954;DHT22;40855;51.072;5.402;2023-03-23T07:33:58;13.40;99.90
54954;DHT22;40855;51.072;5.402;2023-03-23T07:36:25;13.40;99.90
54954;DHT22;40855;51.072;5.402;2023-03-23T07:38:51;13.50;99.90
54954;DHT22;40855;51.072;5.402;2023-03-23T07:41:17;13.50;99.90
54954;DHT22;40855;51.072;5.402;2023-03-23T07:43:43;13.50;99.90
54954;DHT22;40855;51.072;5.402;2023-03-23T07:46:08;13.50;99.90
54954;DHT22;40855;51.072;5.402;2023-03-23T07:48:34;13.50;99.90
54954;DHT22;40855;51.072;5.402;2023-03-23T07:51:01;13.60;99.90
54954;DHT22;40855;51.072;5.402;2023-03-23T07:53:27;13.60;99.90
54954;DHT22;40855;51.072;5.402;2023-03-23T07:55:53;13.60;99.90
54954;DHT22;40855;51.072;5.402;2023-03-23T07:58:19;13.60;99.90
54954;DHT22;40855;51.072;5.402;2023-03-23T08:00:48;13.70;99.90
54954;DHT22;40855;51.072;5.402;2023-03-23T08:03:15;13.80;99.90
54954;DHT22;40855;51.072;5.402;2023-03-23T08:05:41;13.80;99.90
54954;DHT22;40855;51.072;5.402;2023-03-23T08:08:08;13.90;99.90
54954;DHT22;40855;51.072;5.402;2023-03-23T08:10:35;13.90;99.90
54954;DHT22;40855;51.072;5.402;2023-03-23T08:13:01;13.80;99.90
54954;DHT22;40855;51.072;5.402;2023-03-23T08:15:27;13.60;99.90
54954;DHT22;40855;51.072;5.402;2023-03-23T08:17:54;13.50;99.90
54954;DHT22;40855;51.072;5.402;2023-03-23T08:20:20;13.30;99.90
54954;DHT22;40855;51.072;5.402;2023-03-23T08:22:55;13.20;99.90
54954;DHT22;40855;51.072;5.402;2023-03-23T08:25:23;13.10;99.90
54954;DHT22;40855;51.072;5.402;2023-03-23T08:27:49;12.90;99.90
54954;DHT22;40855;51.072;5.402;2023-03-23T08:30:19;12.70;99.90
54954;DHT22;40855;51.072;5.402;2023-03-23T08:32:45;12.60;99.90
54954;DHT22;40855;51.072;5.402;2023-03-23T08:35:12;12.50;99.90
54954;DHT22;40855;51.072;5.402;2023-03-23T08:37:39;12.40;99.90
54954;DHT22;40855;51.072;5.402;2023-03-23T08:40:08;12.20;99.90
54954;DHT22;40855;51.072;5.402;2023-03-23T08:42:38;12.10;99.90
54954;DHT22;40855;51.072;5.402;2023-03-23T08:45:05;12.00;99.90
54954;DHT22;40855;51.072;5.402;2023-03-23T08:47:33;11.90;99.90
54954;DHT22;40855;51.072;5.402;2023-03-23T08:49:58;11.90;99.90
54954;DHT22;40855;51.072;5.402;2023-03-23T08:52:25;11.80;99.90
54954;DHT22;40855;51.072;5.402;2023-03-23T08:54:51;11.70;99.90
54954;DHT22;40855;51.072;5.402;2023-03-23T08:57:16;11.70;99.90
54954;DHT22;40855;51.072;5.402;2023-03-23T08:59:43;11.70;99.90
54954;DHT22;40855;51.072;5.402;2023-03-23T09:02:10;11.60;99.90
54954;DHT22;40855;51.072;5.402;2023-03-23T09:04:38;11.60;99.90
54954;DHT22;40855;51.072;5.402;2023-03-23T09:07:04;11.50;99.90
54954;DHT22;40855;51.072;5.402;2023-03-23T09:09:30;11.50;99.90
54954;DHT22;40855;51.072;5.402;2023-03-23T09:11:56;11.50;99.90
54954;DHT22;40855;51.072;5.402;2023-03-23T09:14:21;11.50;99.90
54954;DHT22;40855;51.072;5.402;2023-03-23T09:16:47;11.50;99.90
54954;DHT22;40855;51.072;5.402;2023-03-23T09:19:12;11.50;99.90
54954;DHT22;40855;51.072;5.402;2023-03-23T09:21:38;11.60;99.90
54954;DHT22;40855;51.072;5.402;2023-03-23T09:24:04;11.60;99.90
54954;DHT22;40855;51.072;5.402;2023-03-23T09:26:31;11.60;99.90
54954;DHT22;40855;51.072;5.402;2023-03-23T09:28:57;11.60;99.90
54954;DHT22;40855;51.072;5.402;2023-03-23T09:31:24;11.60;99.90
54954;DHT22;40855;51.072;5.402;2023-03-23T09:33:53;11.70;99.90
54954;DHT22;40855;51.072;5.402;2023-03-23T09:36:21;11.70;99.90
54954;DHT22;40855;51.072;5.402;2023-03-23T09:38:50;11.80;99.90
54954;DHT22;40855;51.072;5.402;2023-03-23T09:41:32;11.80;99.90
54954;DHT22;40855;51.072;5.402;2023-03-23T09:49:17;12.00;99.90
54954;DHT22;40855;51.072;5.402;2023-03-23T09:51:51;12.00;99.90
54954;DHT22;40855;51.072;5.402;2023-03-23T09:54:27;12.10;99.90
54954;DHT22;40855;51.072;5.402;2023-03-23T09:56:54;12.10;99.90
54954;DHT22;40855;51.072;5.402;2023-03-23T10:01:58;12.10;99.90
54954;DHT22;40855;51.072;5.402;2023-03-23T10:07:13;12.20;99.90
54954;DHT22;40855;51.072;5.402;2023-03-23T10:09:39;12.30;99.90
54954;DHT22;40855;51.072;5.402;2023-03-23T10:17:33;12.40;99.90
54954;DHT22;40855;51.072;5.402;2023-03-23T10:25:37;12.40;99.90
54954;DHT22;40855;51.072;5.402;2023-03-23T10:28:15;12.40;99.90
54954;DHT22;40855;51.072;5.402;2023-03-23T10:30:51;12.40;99.90
54954;DHT22;40855;51.072;5.402;2023-03-23T10:33:29;12.50;99.90
54954;DHT22;40855;51.072;5.402;2023-03-23T10:36:30;12.50;99.90
54954;DHT22;40855;51.072;5.402;2023-03-23T10:38:59;12.60;99.90
54954;DHT22;40855;51.072;5.402;2023-03-23T10:41:26;12.60;99.90
54954;DHT22;40855;51.072;5.402;2023-03-23T10:43:52;12.70;99.90
54954;DHT22;40855;51.072;5.402;2023-03-23T10:49:08;12.90;99.90
54954;DHT22;40855;51.072;5.402;2023-03-23T10:51:41;13.00;99.90
54954;DHT22;40855;51.072;5.402;2023-03-23T10:54:07;13.10;99.90
54954;DHT22;40855;51.072;5.402;2023-03-23T10:56:37;13.30;99.90
54954;DHT22;40855;51.072;5.402;2023-03-23T10:59:28;13.40;99.90
54954;DHT22;40855;51.072;5.402;2023-03-23T11:01:57;13.60;99.90
54954;DHT22;40855;51.072;5.402;2023-03-23T11:04:24;13.60;99.90
54954;DHT22;40855;51.072;5.402;2023-03-23T11:06:53;13.70;99.90
54954;DHT22;40855;51.072;5.402;2023-03-23T11:09:21;13.80;99.90
54954;DHT22;40855;51.072;5.402;2023-03-23T11:11:58;13.80;99.90
54954;DHT22;40855;51.072;5.402;2023-03-23T11:14:35;13.90;99.90
54954;DHT22;40855;51.072;5.402;2023-03-23T11:17:05;14.00;99.90
54954;DHT22;40855;51.072;5.402;2023-03-23T11:19:36;14.00;99.90
54954;DHT22;40855;51.072;5.402;2023-03-23T11:22:15;14.10;99.90
54954;DHT22;40855;51.072;5.402;2023-03-23T11:24:47;14.20;99.90
54954;DHT22;40855;51.072;5.402;2023-03-23T11:27:15;14.20;99.90
54954;DHT22;40855;51.072;5.402;2023-03-23T11:32:16;14.40;99.90
54954;DHT22;40855;51.072;5.402;2023-03-23T11:34:48;14.40;99.90
54954;DHT22;40855;51.072;5.402;2023-03-23T11:40:01;14.60;99.90
54954;DHT22;40855;51.072;5.402;2023-03-23T11:42:45;14.60;99.90
54954;DHT22;40855;51.072;5.402;2023-03-23T11:45:21;14.70;99.90
54954;DHT22;40855;51.072;5.402;2023-03-23T11:47:59;14.70;99.90
54954;DHT22;40855;51.072;5.402;2023-03-23T11:50:31;14.90;99.90
54954;DHT22;40855;51.072;5.402;2023-03-23T11:55:55;15.00;99.90
54954;DHT22;40855;51.072;5.402;2023-03-23T11:58:23;15.20;99.90
54954;DHT22;40855;51.072;5.402;2023-03-23T12:00:56;15.20;99.90
54954;DHT22;40855;51.072;5.402;2023-03-23T12:08:44;15.50;99.90
54954;DHT22;40855;51.072;5.402;2023-03-23T12:16:52;15.70;99.90
54954;DHT22;40855;51.072;5.402;2023-03-23T12:39:33;16.10;99.90
54954;DHT22;40855;51.072;5.402;2023-03-23T12:44:53;16.30;99.90
54954;DHT22;40855;51.072;5.402;2023-03-23T12:47:42;16.40;99.90
54954;DHT22;40855;51.072;5.402;2023-03-23T12:50:32;16.40;99.90
54954;DHT22;40855;51.072;5.402;2023-03-23T12:53:22;16.50;99.90
54954;DHT22;40855;51.072;5.402;2023-03-23T12:56:16;16.50;99.90
54954;DHT22;40855;51.072;5.402;2023-03-23T12:58:50;16.40;99.90
54954;DHT22;40855;51.072;5.402;2023-03-23T13:01:19;16.40;99.90
54954;DHT22;40855;51.072;5.402;2023-03-23T13:03:58;16.30;99.90
54954;DHT22;40855;51.072;5.402;2023-03-23T13:06:35;16.20;99.90
54954;DHT22;40855;51.072;5.402;2023-03-23T13:09:14;16.00;99.90
54954;DHT22;40855;51.072;5.402;2023-03-23T13:11:42;16.00;99.90
54954;DHT22;40855;51.072;5.402;2023-03-23T13:22:11;16.10;99.90
54954;DHT22;40855;51.072;5.402;2023-03-23T13:24:46;16.20;99.90
54954;DHT22;40855;51.072;5.402;2023-03-23T13:27:13;16.30;99.90
54954;DHT22;40855;51.072;5.402;2023-03-23T13:29:44;16.30;99.90
54954;DHT22;40855;51.072;5.402;2023-03-23T13:32:15;16.30;99.90
54954;DHT22;40855;51.072;5.402;2023-03-23T13:34:42;16.30;99.90
54954;DHT22;40855;51.072;5.402;2023-03-23T13:37:20;16.30;99.90
54954;DHT22;40855;51.072;5.402;2023-03-23T13:39:51;16.30;99.90
54954;DHT22;40855;51.072;5.402;2023-03-23T13:42:21;16.30;99.90
54954;DHT22;40855;51.072;5.402;2023-03-23T13:50:00;16.20;99.90
54954;DHT22;40855;51.072;5.402;2023-03-23T14:05:44;15.90;99.90
54954;DHT22;40855;51.072;5.402;2023-03-23T14:08:52;16.00;99.90
54954;DHT22;40855;51.072;5.402;2023-03-23T14:11:14;16.10;99.90
54954;DHT22;40855;51.072;5.402;2023-03-23T14:14:02;16.20;99.90
54954;DHT22;40855;51.072;5.402;2023-03-23T14:16:43;16.30;99.90
54954;DHT22;40855;51.072;5.402;2023-03-23T14:21:56;16.40;99.90
54954;DHT22;40855;51.072;5.402;2023-03-23T14:24:25;16.60;99.90
54954;DHT22;40855;51.072;5.402;2023-03-23T14:26:53;16.70;99.90
54954;DHT22;40855;51.072;5.402;2023-03-23T14:29:26;16.80;99.90
54954;DHT22;40855;51.072;5.402;2023-03-23T14:31:56;16.90;99.90
54954;DHT22;40855;51.072;5.402;2023-03-23T14:34:26;17.00;99.90
54954;DHT22;40855;51.072;5.402;2023-03-23T14:36:53;17.00;99.90
54954;DHT22;40855;51.072;5.402;2023-03-23T14:39:29;17.00;99.90
54954;DHT22;40855;51.072;5.402;2023-03-23T14:42:02;17.10;99.90
54954;DHT22;40855;51.072;5.402;2023-03-23T14:44:37;17.10;99.90
54954;DHT22;40855;51.072;5.402;2023-03-23T14:47:13;17.10;99.90
54954;DHT22;40855;51.072;5.402;2023-03-23T14:49:42;17.20;99.90
54954;DHT22;40855;51.072;5.402;2023-03-23T14:54:35;17.20;99.90
54954;DHT22;40855;51.072;5.402;2023-03-23T15:00:04;17.20;99.90
54954;DHT22;40855;51.072;5.402;2023-03-23T15:02:38;17.20;99.90
54954;DHT22;40855;51.072;5.402;2023-03-23T15:05:15;17.20;99.90
54954;DHT22;40855;51.072;5.402;2023-03-23T15:07:46;17.20;99.90
54954;DHT22;40855;51.072;5.402;2023-03-23T15:10:17;17.20;99.90
54954;DHT22;40855;51.072;5.402;2023-03-23T15:12:45;17.10;99.90
54954;DHT22;40855;51.072;5.402;2023-03-23T15:15:24;17.00;99.90
54954;DHT22;40855;51.072;5.402;2023-03-23T15:17:50;16.90;99.90
54954;DHT22;40855;51.072;5.402;2023-03-23T15:20:26;16.80;99.90
54954;DHT22;40855;51.072;5.402;2023-03-23T15:22:53;16.80;99.90
54954;DHT22;40855;51.072;5.402;2023-03-23T15:25:37;16.80;99.90
54954;DHT22;40855;51.072;5.402;2023-03-23T15:28:29;16.80;99.90
54954;DHT22;40855;51.072;5.402;2023-03-23T15:31:01;16.80;99.90
54954;DHT22;40855;51.072;5.402;2023-03-23T15:33:33;16.80;99.90
54954;DHT22;40855;51.072;5.402;2023-03-23T15:35:59;16.70;99.90
54954;DHT22;40855;51.072;5.402;2023-03-23T15:38:34;16.70;99.90
54954;DHT22;40855;51.072;5.402;2023-03-23T15:41:06;16.60;99.90
54954;DHT22;40855;51.072;5.402;2023-03-23T15:43:49;16.50;99.90
54954;DHT22;40855;51.072;5.402;2023-03-23T15:49:10;16.50;99.90
54954;DHT22;40855;51.072;5.402;2023-03-23T15:51:35;16.40;99.90
54954;DHT22;40855;51.072;5.402;2023-03-23T15:54:01;16.30;99.90
54954;DHT22;40855;51.072;5.402;2023-03-23T15:56:27;16.20;99.90
54954;DHT22;40855;51.072;5.402;2023-03-23T15:58:55;16.10;99.90
54954;DHT22;40855;51.072;5.402;2023-03-23T16:01:27;16.00;99.90
54954;DHT22;40855;51.072;5.402;2023-03-23T16:06:25;15.90;99.90
54954;DHT22;40855;51.072;5.402;2023-03-23T16:08:53;15.80;99.90
54954;DHT22;40855;51.072;5.402;2023-03-23T16:11:18;15.90;99.90
54954;DHT22;40855;51.072;5.402;2023-03-23T16:13:45;15.90;99.90
54954;DHT22;40855;51.072;5.402;2023-03-23T16:16:16;15.90;99.90
54954;DHT22;40855;51.072;5.402;2023-03-23T16:18:42;16.00;99.90
54954;DHT22;40855;51.072;5.402;2023-03-23T16:21:08;16.00;99.90
54954;DHT22;40855;51.072;5.402;2023-03-23T16:23:34;16.00;99.90
54954;DHT22;40855;51.072;5.402;2023-03-23T16:26:00;15.90;99.90
54954;DHT22;40855;51.072;5.402;2023-03-23T16:28:26;15.90;99.90
54954;DHT22;40855;51.072;5.402;2023-03-23T16:30:51;15.90;99.90
54954;DHT22;40855;51.072;5.402;2023-03-23T16:33:17;15.90;99.90
54954;DHT22;40855;51.072;5.402;2023-03-23T16:35:43;15.90;99.90
54954;DHT22;40855;51.072;5.402;2023-03-23T16:38:15;15.90;99.90
54954;DHT22;40855;51.072;5.402;2023-03-23T16:40:43;15.90;99.90
54954;DHT22;40855;51.072;5.402;2023-03-23T16:43:09;15.80;99.90
54954;DHT22;40855;51.072;5.402;2023-03-23T16:45:41;15.80;99.90
54954;DHT22;40855;51.072;5.402;2023-03-23T16:48:08;15.80;99.90
54954;DHT22;40855;51.072;5.402;2023-03-23T16:50:34;15.80;99.90
54954;DHT22;40855;51.072;5.402;2023-03-23T16:53:01;15.80;99.90
54954;DHT22;40855;51.072;5.402;2023-03-23T16:55:27;15.70;99.90
54954;DHT22;40855;51.072;5.402;2023-03-23T16:57:53;15.70;99.90
54954;DHT22;40855;51.072;5.402;2023-03-23T17:00:19;15.60;99.90
54954;DHT22;40855;51.072;5.402;2023-03-23T17:02:48;15.60;99.90
54954;DHT22;40855;51.072;5.402;2023-03-23T17:05:20;15.60;99.90
54954;DHT22;40855;51.072;5.402;2023-03-23T17:07:47;15.60;99.90
54954;DHT22;40855;51.072;5.402;2023-03-23T17:10:14;15.50;99.90
54954;DHT22;40855;51.072;5.402;2023-03-23T17:12:40;15.50;99.90
54954;DHT22;40855;51.072;5.402;2023-03-23T17:15:07;15.50;99.90
54954;DHT22;40855;51.072;5.402;2023-03-23T17:17:33;15.50;99.90
54954;DHT22;40855;51.072;5.402;2023-03-23T17:19:59;15.40;99.90
54954;DHT22;40855;51.072;5.402;2023-03-23T17:22:26;15.40;99.90
54954;DHT22;40855;51.072;5.402;2023-03-23T17:24:52;15.30;99.90
54954;DHT22;40855;51.072;5.402;2023-03-23T17:27:19;15.30;99.90
54954;DHT22;40855;51.072;5.402;2023-03-23T17:29:45;15.30;99.90
54954;DHT22;40855;51.072;5.402;2023-03-23T17:32:12;15.30;99.90
54954;DHT22;40855;51.072;5.402;2023-03-23T17:34:38;15.30;99.90
54954;DHT22;40855;51.072;5.402;2023-03-23T17:37:04;15.20;99.90
54954;DHT22;40855;51.072;5.402;2023-03-23T17:39:30;15.20;99.90
54954;DHT22;40855;51.072;5.402;2023-03-23T17:41:58;15.20;99.90
54954;DHT22;40855;51.072;5.402;2023-03-23T17:44:24;15.10;99.90
54954;DHT22;40855;51.072;5.402;2023-03-23T17:46:50;15.10;99.90